sensor_id;sensor_type;location;lat;lon;timestamp;P1;durP1;ratioP1;P2;durP2;ratioP2
51848;SDS011;38952;51.090;-1.832;2022-08-19T00:01:31;3.60;;;1.05;;
51848;SDS011;38952;51.090;-1.832;2022-08-19T00:04:00;1.27;;;0.55;;
51848;SDS011;38952;51.090;-1.832;2022-08-19T00:06:28;2.85;;;0.80;;
51848;SDS011;38952;51.090;-1.832;2022-08-19T00:08:54;1.88;;;0.93;;
51848;SDS011;38952;51.090;-1.832;2022-08-19T00:11:21;0.80;;;0.52;;
51848;SDS011;38952;51.090;-1.832;2022-08-19T00:13:46;0.98;;;0.50;;
51848;SDS011;38952;51.090;-1.832;2022-08-19T00:16:14;3.60;;;0.75;;
51848;SDS011;38952;51.090;-1.832;2022-08-19T00:18:40;3.92;;;0.68;;
51848;SDS011;38952;51.090;-1.832;2022-08-19T00:21:06;0.52;;;0.30;;
51848;SDS011;38952;51.090;-1.832;2022-08-19T00:23:32;6.63;;;0.60;;
51848;SDS011;38952;51.090;-1.832;2022-08-19T00:25:59;2.35;;;1.02;;
51848;SDS011;38952;51.090;-1.832;2022-08-19T00:28:25;0.65;;;0.38;;
51848;SDS011;38952;51.090;-1.832;2022-08-19T00:30:50;1.15;;;0.40;;
51848;SDS011;38952;51.090;-1.832;2022-08-19T00:33:18;2.00;;;0.60;;
51848;SDS011;38952;51.090;-1.832;2022-08-19T00:35:43;1.27;;;0.65;;
51848;SDS011;38952;51.090;-1.832;2022-08-19T00:38:09;1.25;;;0.80;;
51848;SDS011;38952;51.090;-1.832;2022-08-19T00:40:34;0.52;;;0.40;;
51848;SDS011;38952;51.090;-1.832;2022-08-19T00:43:00;0.90;;;0.40;;
51848;SDS011;38952;51.090;-1.832;2022-08-19T00:45:26;1.95;;;0.40;;
51848;SDS011;38952;51.090;-1.832;2022-08-19T00:47:52;0.82;;;0.38;;
51848;SDS011;38952;51.090;-1.832;2022-08-19T00:50:18;1.25;;;0.52;;
51848;SDS011;38952;51.090;-1.832;2022-08-19T00:52:46;1.30;;;0.52;;
51848;SDS011;38952;51.090;-1.832;2022-08-19T00:55:24;1.45;;;0.45;;
51848;SDS011;38952;51.090;-1.832;2022-08-19T00:57:55;1.33;;;0.50;;
51848;SDS011;38952;51.090;-1.832;2022-08-19T01:00:23;0.95;;;0.50;;
51848;SDS011;38952;51.090;-1.832;2022-08-19T01:02:50;0.98;;;0.43;;
51848;SDS011;38952;51.090;-1.832;2022-08-19T01:05:20;0.52;;;0.50;;
51848;SDS011;38952;51.090;-1.832;2022-08-19T01:07:47;0.80;;;0.47;;
51848;SDS011;38952;51.090;-1.832;2022-08-19T01:10:16;0.50;;;0.43;;
51848;SDS011;38952;51.090;-1.832;2022-08-19T01:12:44;1.17;;;0.30;;
51848;SDS011;38952;51.090;-1.832;2022-08-19T01:15:12;0.50;;;0.50;;
51848;SDS011;38952;51.090;-1.832;2022-08-19T01:17:42;1.17;;;0.63;;
51848;SDS011;38952;51.090;-1.832;2022-08-19T01:20:12;0.30;;;0.30;;
51848;SDS011;38952;51.090;-1.832;2022-08-19T01:22:47;1.15;;;0.50;;
51848;SDS011;38952;51.090;-1.832;2022-08-19T01:25:14;1.30;;;0.40;;
51848;SDS011;38952;51.090;-1.832;2022-08-19T01:27:42;0.30;;;0.30;;
51848;SDS011;38952;51.090;-1.832;2022-08-19T01:30:20;1.17;;;0.28;;
51848;SDS011;38952;51.090;-1.832;2022-08-19T01:32:50;9.93;;;0.50;;
51848;SDS011;38952;51.090;-1.832;2022-08-19T01:35:16;1.17;;;0.13;;
51848;SDS011;38952;51.090;-1.832;2022-08-19T01:37:56;0.60;;;0.35;;
51848;SDS011;38952;51.090;-1.832;2022-08-19T01:40:25;0.38;;;0.15;;
51848;SDS011;38952;51.090;-1.832;2022-08-19T01:42:52;0.20;;;0.17;;
51848;SDS011;38952;51.090;-1.832;2022-08-19T01:45:19;0.68;;;0.30;;
51848;SDS011;38952;51.090;-1.832;2022-08-19T01:47:46;0.35;;;0.20;;
51848;SDS011;38952;51.090;-1.832;2022-08-19T01:50:12;0.20;;;0.20;;
51848;SDS011;38952;51.090;-1.832;2022-08-19T01:52:39;0.73;;;0.20;;
51848;SDS011;38952;51.090;-1.832;2022-08-19T01:55:06;0.10;;;0.10;;
51848;SDS011;38952;51.090;-1.832;2022-08-19T01:57:33;0.10;;;0.10;;
51848;SDS011;38952;51.090;-1.832;2022-08-19T01:59:59;0.32;;;0.10;;
51848;SDS011;38952;51.090;-1.832;2022-08-19T02:02:26;0.20;;;0.20;;
51848;SDS011;38952;51.090;-1.832;2022-08-19T02:04:51;0.32;;;0.20;;
51848;SDS011;38952;51.090;-1.832;2022-08-19T02:07:19;0.20;;;0.10;;
51848;SDS011;38952;51.090;-1.832;2022-08-19T02:09:46;0.10;;;0.10;;
51848;SDS011;38952;51.090;-1.832;2022-08-19T02:12:13;0.10;;;0.10;;
51848;SDS011;38952;51.090;-1.832;2022-08-19T02:14:39;0.13;;;0.13;;
51848;SDS011;38952;51.090;-1.832;2022-08-19T02:17:05;0.10;;;0.10;;
51848;SDS011;38952;51.090;-1.832;2022-08-19T02:19:30;0.93;;;0.20;;
51848;SDS011;38952;51.090;-1.832;2022-08-19T02:21:57;0.13;;;0.10;;
51848;SDS011;38952;51.090;-1.832;2022-08-19T02:24:23;0.10;;;0.10;;
51848;SDS011;38952;51.090;-1.832;2022-08-19T02:26:49;0.10;;;0.10;;
51848;SDS011;38952;51.090;-1.832;2022-08-19T02:29:14;0.05;;;0.05;;
51848;SDS011;38952;51.090;-1.832;2022-08-19T02:31:40;0.05;;;0.05;;
51848;SDS011;38952;51.090;-1.832;2022-08-19T02:34:05;0.40;;;0.10;;
51848;SDS011;38952;51.090;-1.832;2022-08-19T02:36:31;0.17;;;0.10;;
51848;SDS011;38952;51.090;-1.832;2022-08-19T02:38:56;0.08;;;0.08;;
51848;SDS011;38952;51.090;-1.832;2022-08-19T02:41:23;1.02;;;0.20;;
51848;SDS011;38952;51.090;-1.832;2022-08-19T02:43:50;0.20;;;0.10;;
51848;SDS011;38952;51.090;-1.832;2022-08-19T02:46:20;0.15;;;0.10;;
51848;SDS011;38952;51.090;-1.832;2022-08-19T02:48:48;0.00;;;0.00;;
51848;SDS011;38952;51.090;-1.832;2022-08-19T02:51:16;0.10;;;0.10;;
51848;SDS011;38952;51.090;-1.832;2022-08-19T02:53:43;0.30;;;0.15;;
51848;SDS011;38952;51.090;-1.832;2022-08-19T02:56:09;0.63;;;0.10;;
51848;SDS011;38952;51.090;-1.832;2022-08-19T02:58:34;0.10;;;0.10;;
51848;SDS011;38952;51.090;-1.832;2022-08-19T03:01:00;0.22;;;0.20;;
51848;SDS011;38952;51.090;-1.832;2022-08-19T03:03:26;0.55;;;0.20;;
51848;SDS011;38952;51.090;-1.832;2022-08-19T03:05:51;0.22;;;0.20;;
51848;SDS011;38952;51.090;-1.832;2022-08-19T03:08:27;0.70;;;0.22;;
51848;SDS011;38952;51.090;-1.832;2022-08-19T03:10:53;0.15;;;0.13;;
51848;SDS011;38952;51.090;-1.832;2022-08-19T03:13:18;0.20;;;0.20;;
51848;SDS011;38952;51.090;-1.832;2022-08-19T03:15:45;1.45;;;0.03;;
51848;SDS011;38952;51.090;-1.832;2022-08-19T03:18:11;1.42;;;0.30;;
51848;SDS011;38952;51.090;-1.832;2022-08-19T03:20:44;0.40;;;0.10;;
51848;SDS011;38952;51.090;-1.832;2022-08-19T03:23:12;0.52;;;0.17;;
51848;SDS011;38952;51.090;-1.832;2022-08-19T03:25:38;1.00;;;0.30;;
51848;SDS011;38952;51.090;-1.832;2022-08-19T03:28:06;0.22;;;0.17;;
51848;SDS011;38952;51.090;-1.832;2022-08-19T03:30:32;0.10;;;0.10;;
51848;SDS011;38952;51.090;-1.832;2022-08-19T03:32:58;0.98;;;0.50;;
51848;SDS011;38952;51.090;-1.832;2022-08-19T03:35:23;0.60;;;0.15;;
51848;SDS011;38952;51.090;-1.832;2022-08-19T03:37:48;0.47;;;0.20;;
51848;SDS011;38952;51.090;-1.832;2022-08-19T03:40:14;0.47;;;0.20;;
51848;SDS011;38952;51.090;-1.832;2022-08-19T03:42:39;0.30;;;0.25;;
51848;SDS011;38952;51.090;-1.832;2022-08-19T03:45:07;2.05;;;0.20;;
51848;SDS011;38952;51.090;-1.832;2022-08-19T03:47:33;1.00;;;0.30;;
51848;SDS011;38952;51.090;-1.832;2022-08-19T03:49:58;6.60;;;0.20;;
51848;SDS011;38952;51.090;-1.832;2022-08-19T03:52:24;0.80;;;0.20;;
51848;SDS011;38952;51.090;-1.832;2022-08-19T03:54:49;0.77;;;0.30;;
51848;SDS011;38952;51.090;-1.832;2022-08-19T03:57:14;0.45;;;0.30;;
51848;SDS011;38952;51.090;-1.832;2022-08-19T03:59:40;1.50;;;0.40;;
51848;SDS011;38952;51.090;-1.832;2022-08-19T04:02:07;1.50;;;0.30;;
51848;SDS011;38952;51.090;-1.832;2022-08-19T04:04:35;2.15;;;0.40;;
51848;SDS011;38952;51.090;-1.832;2022-08-19T04:07:02;0.75;;;0.30;;
51848;SDS011;38952;51.090;-1.832;2022-08-19T04:09:28;0.30;;;0.30;;
51848;SDS011;38952;51.090;-1.832;2022-08-19T04:11:55;1.38;;;0.50;;
51848;SDS011;38952;51.090;-1.832;2022-08-19T04:14:23;0.13;;;0.10;;
51848;SDS011;38952;51.090;-1.832;2022-08-19T04:16:55;0.57;;;0.20;;
51848;SDS011;38952;51.090;-1.832;2022-08-19T04:19:21;0.80;;;0.30;;
51848;SDS011;38952;51.090;-1.832;2022-08-19T04:21:51;0.50;;;0.20;;
51848;SDS011;38952;51.090;-1.832;2022-08-19T04:24:21;1.27;;;0.50;;
51848;SDS011;38952;51.090;-1.832;2022-08-19T04:26:47;0.63;;;0.30;;
51848;SDS011;38952;51.090;-1.832;2022-08-19T04:29:15;2.63;;;0.38;;
51848;SDS011;38952;51.090;-1.832;2022-08-19T04:31:43;1.20;;;0.40;;
51848;SDS011;38952;51.090;-1.832;2022-08-19T04:34:10;1.38;;;0.50;;
51848;SDS011;38952;51.090;-1.832;2022-08-19T04:36:39;1.42;;;0.40;;
51848;SDS011;38952;51.090;-1.832;2022-08-19T04:39:10;1.95;;;0.55;;
51848;SDS011;38952;51.090;-1.832;2022-08-19T04:41:37;0.70;;;0.40;;
51848;SDS011;38952;51.090;-1.832;2022-08-19T04:44:22;0.77;;;0.43;;
51848;SDS011;38952;51.090;-1.832;2022-08-19T04:46:48;1.02;;;0.40;;
51848;SDS011;38952;51.090;-1.832;2022-08-19T04:49:14;5.38;;;0.70;;
51848;SDS011;38952;51.090;-1.832;2022-08-19T04:51:42;2.15;;;0.60;;
51848;SDS011;38952;51.090;-1.832;2022-08-19T04:54:09;3.28;;;0.50;;
51848;SDS011;38952;51.090;-1.832;2022-08-19T04:56:35;1.80;;;0.68;;
51848;SDS011;38952;51.090;-1.832;2022-08-19T04:59:01;1.13;;;0.40;;
51848;SDS011;38952;51.090;-1.832;2022-08-19T05:01:29;1.15;;;0.57;;
51848;SDS011;38952;51.090;-1.832;2022-08-19T05:03:57;1.05;;;0.50;;
51848;SDS011;38952;51.090;-1.832;2022-08-19T05:06:23;1.35;;;0.50;;
51848;SDS011;38952;51.090;-1.832;2022-08-19T05:08:50;0.65;;;0.40;;
51848;SDS011;38952;51.090;-1.832;2022-08-19T05:11:17;2.67;;;0.60;;
51848;SDS011;38952;51.090;-1.832;2022-08-19T05:13:45;0.63;;;0.40;;
51848;SDS011;38952;51.090;-1.832;2022-08-19T05:16:13;1.08;;;0.55;;
51848;SDS011;38952;51.090;-1.832;2022-08-19T05:18:40;0.40;;;0.30;;
51848;SDS011;38952;51.090;-1.832;2022-08-19T05:21:24;0.30;;;0.30;;
51848;SDS011;38952;51.090;-1.832;2022-08-19T05:24:08;2.97;;;0.30;;
51848;SDS011;38952;51.090;-1.832;2022-08-19T05:26:35;2.78;;;0.65;;
51848;SDS011;38952;51.090;-1.832;2022-08-19T05:29:02;1.63;;;0.60;;
51848;SDS011;38952;51.090;-1.832;2022-08-19T05:31:28;0.93;;;0.40;;
51848;SDS011;38952;51.090;-1.832;2022-08-19T05:33:54;1.75;;;0.65;;
51848;SDS011;38952;51.090;-1.832;2022-08-19T05:36:20;1.73;;;0.68;;
51848;SDS011;38952;51.090;-1.832;2022-08-19T05:38:46;3.13;;;0.70;;
51848;SDS011;38952;51.090;-1.832;2022-08-19T05:41:13;4.00;;;0.90;;
51848;SDS011;38952;51.090;-1.832;2022-08-19T05:43:40;4.97;;;1.00;;
51848;SDS011;38952;51.090;-1.832;2022-08-19T05:46:05;2.92;;;0.70;;
51848;SDS011;38952;51.090;-1.832;2022-08-19T05:48:34;4.53;;;1.15;;
51848;SDS011;38952;51.090;-1.832;2022-08-19T05:51:07;2.90;;;0.88;;
51848;SDS011;38952;51.090;-1.832;2022-08-19T05:53:33;4.38;;;0.80;;
51848;SDS011;38952;51.090;-1.832;2022-08-19T05:56:06;5.60;;;1.20;;
51848;SDS011;38952;51.090;-1.832;2022-08-19T05:58:32;3.28;;;1.05;;
51848;SDS011;38952;51.090;-1.832;2022-08-19T06:00:59;3.75;;;1.08;;
51848;SDS011;38952;51.090;-1.832;2022-08-19T06:03:30;10.70;;;1.23;;
51848;SDS011;38952;51.090;-1.832;2022-08-19T06:05:57;3.83;;;0.95;;
51848;SDS011;38952;51.090;-1.832;2022-08-19T06:08:24;12.18;;;2.72;;
51848;SDS011;38952;51.090;-1.832;2022-08-19T06:10:50;7.28;;;0.95;;
51848;SDS011;38952;51.090;-1.832;2022-08-19T06:13:16;6.30;;;1.98;;
51848;SDS011;38952;51.090;-1.832;2022-08-19T06:15:42;5.43;;;1.33;;
51848;SDS011;38952;51.090;-1.832;2022-08-19T06:18:09;4.63;;;1.15;;
51848;SDS011;38952;51.090;-1.832;2022-08-19T06:20:34;6.05;;;1.50;;
51848;SDS011;38952;51.090;-1.832;2022-08-19T06:23:00;4.50;;;1.17;;
51848;SDS011;38952;51.090;-1.832;2022-08-19T06:25:28;4.38;;;1.20;;
51848;SDS011;38952;51.090;-1.832;2022-08-19T06:27:53;13.52;;;2.00;;
51848;SDS011;38952;51.090;-1.832;2022-08-19T06:30:19;8.18;;;1.30;;
51848;SDS011;38952;51.090;-1.832;2022-08-19T06:32:44;8.13;;;1.27;;
51848;SDS011;38952;51.090;-1.832;2022-08-19T06:35:10;7.97;;;1.48;;
51848;SDS011;38952;51.090;-1.832;2022-08-19T06:37:36;4.45;;;1.10;;
51848;SDS011;38952;51.090;-1.832;2022-08-19T06:40:02;9.27;;;1.30;;
51848;SDS011;38952;51.090;-1.832;2022-08-19T06:42:28;11.25;;;1.67;;
51848;SDS011;38952;51.090;-1.832;2022-08-19T06:44:54;7.70;;;1.50;;
51848;SDS011;38952;51.090;-1.832;2022-08-19T06:47:20;7.10;;;1.20;;
51848;SDS011;38952;51.090;-1.832;2022-08-19T06:49:46;5.75;;;1.30;;
51848;SDS011;38952;51.090;-1.832;2022-08-19T06:52:12;6.07;;;1.20;;
51848;SDS011;38952;51.090;-1.832;2022-08-19T06:54:38;5.50;;;2.05;;
51848;SDS011;38952;51.090;-1.832;2022-08-19T06:57:04;7.40;;;1.25;;
51848;SDS011;38952;51.090;-1.832;2022-08-19T06:59:31;7.40;;;1.33;;
51848;SDS011;38952;51.090;-1.832;2022-08-19T07:01:58;9.90;;;1.48;;
51848;SDS011;38952;51.090;-1.832;2022-08-19T07:04:30;20.58;;;1.90;;
51848;SDS011;38952;51.090;-1.832;2022-08-19T07:09:35;9.73;;;1.60;;
51848;SDS011;38952;51.090;-1.832;2022-08-19T07:12:02;13.00;;;1.60;;
51848;SDS011;38952;51.090;-1.832;2022-08-19T07:14:29;9.05;;;1.58;;
51848;SDS011;38952;51.090;-1.832;2022-08-19T07:16:55;10.45;;;1.38;;
51848;SDS011;38952;51.090;-1.832;2022-08-19T07:19:23;7.28;;;1.20;;
51848;SDS011;38952;51.090;-1.832;2022-08-19T07:21:52;7.00;;;1.08;;
51848;SDS011;38952;51.090;-1.832;2022-08-19T07:24:19;7.95;;;1.50;;
51848;SDS011;38952;51.090;-1.832;2022-08-19T07:26:48;6.70;;;1.60;;
51848;SDS011;38952;51.090;-1.832;2022-08-19T07:29:13;5.47;;;1.20;;
51848;SDS011;38952;51.090;-1.832;2022-08-19T07:31:39;11.50;;;1.83;;
51848;SDS011;38952;51.090;-1.832;2022-08-19T07:34:06;8.38;;;1.60;;
51848;SDS011;38952;51.090;-1.832;2022-08-19T07:36:33;5.35;;;1.33;;
51848;SDS011;38952;51.090;-1.832;2022-08-19T07:39:03;17.75;;;1.85;;
51848;SDS011;38952;51.090;-1.832;2022-08-19T07:41:32;13.32;;;1.60;;
51848;SDS011;38952;51.090;-1.832;2022-08-19T07:44:00;14.50;;;2.03;;
51848;SDS011;38952;51.090;-1.832;2022-08-19T07:46:28;5.53;;;1.38;;
51848;SDS011;38952;51.090;-1.832;2022-08-19T07:48:57;4.03;;;1.35;;
51848;SDS011;38952;51.090;-1.832;2022-08-19T07:51:23;5.05;;;0.90;;
51848;SDS011;38952;51.090;-1.832;2022-08-19T07:53:49;7.22;;;1.42;;
51848;SDS011;38952;51.090;-1.832;2022-08-19T07:56:18;4.53;;;1.25;;
51848;SDS011;38952;51.090;-1.832;2022-08-19T07:58:45;5.28;;;1.20;;
51848;SDS011;38952;51.090;-1.832;2022-08-19T08:01:14;5.18;;;1.10;;
51848;SDS011;38952;51.090;-1.832;2022-08-19T08:03:42;3.45;;;1.20;;
51848;SDS011;38952;51.090;-1.832;2022-08-19T08:06:26;5.93;;;1.20;;
51848;SDS011;38952;51.090;-1.832;2022-08-19T08:09:11;5.45;;;1.27;;
51848;SDS011;38952;51.090;-1.832;2022-08-19T08:11:49;4.75;;;1.30;;
51848;SDS011;38952;51.090;-1.832;2022-08-19T08:14:19;3.80;;;1.13;;
51848;SDS011;38952;51.090;-1.832;2022-08-19T08:16:56;8.95;;;1.80;;
51848;SDS011;38952;51.090;-1.832;2022-08-19T08:19:23;5.47;;;1.40;;
51848;SDS011;38952;51.090;-1.832;2022-08-19T08:21:50;2.80;;;1.05;;
51848;SDS011;38952;51.090;-1.832;2022-08-19T08:24:16;13.07;;;1.60;;
51848;SDS011;38952;51.090;-1.832;2022-08-19T08:26:45;8.80;;;1.50;;
51848;SDS011;38952;51.090;-1.832;2022-08-19T08:29:11;4.32;;;0.98;;
51848;SDS011;38952;51.090;-1.832;2022-08-19T08:31:42;4.70;;;1.27;;
51848;SDS011;38952;51.090;-1.832;2022-08-19T08:34:09;10.45;;;2.03;;
51848;SDS011;38952;51.090;-1.832;2022-08-19T08:36:39;4.80;;;1.40;;
51848;SDS011;38952;51.090;-1.832;2022-08-19T08:39:18;6.82;;;1.15;;
51848;SDS011;38952;51.090;-1.832;2022-08-19T08:44:19;6.25;;;1.30;;
51848;SDS011;38952;51.090;-1.832;2022-08-19T08:46:55;7.40;;;1.60;;
51848;SDS011;38952;51.090;-1.832;2022-08-19T08:52:10;5.00;;;1.45;;
51848;SDS011;38952;51.090;-1.832;2022-08-19T08:54:41;2.97;;;0.88;;
51848;SDS011;38952;51.090;-1.832;2022-08-19T08:57:11;7.95;;;0.98;;
51848;SDS011;38952;51.090;-1.832;2022-08-19T08:59:40;7.90;;;1.55;;
51848;SDS011;38952;51.090;-1.832;2022-08-19T09:02:08;5.10;;;1.52;;
51848;SDS011;38952;51.090;-1.832;2022-08-19T09:04:37;4.13;;;1.20;;
51848;SDS011;38952;51.090;-1.832;2022-08-19T09:09:38;4.63;;;1.50;;
51848;SDS011;38952;51.090;-1.832;2022-08-19T09:14:52;3.97;;;1.45;;
51848;SDS011;38952;51.090;-1.832;2022-08-19T09:17:26;8.10;;;2.25;;
51848;SDS011;38952;51.090;-1.832;2022-08-19T09:22:32;6.40;;;1.65;;
51848;SDS011;38952;51.090;-1.832;2022-08-19T09:24:58;5.38;;;1.60;;
51848;SDS011;38952;51.090;-1.832;2022-08-19T09:27:24;5.63;;;1.52;;
51848;SDS011;38952;51.090;-1.832;2022-08-19T09:29:52;4.20;;;1.30;;
51848;SDS011;38952;51.090;-1.832;2022-08-19T09:32:19;5.18;;;1.40;;
51848;SDS011;38952;51.090;-1.832;2022-08-19T09:34:45;6.60;;;1.30;;
51848;SDS011;38952;51.090;-1.832;2022-08-19T09:37:12;5.00;;;1.35;;
51848;SDS011;38952;51.090;-1.832;2022-08-19T09:39:39;12.77;;;1.88;;
51848;SDS011;38952;51.090;-1.832;2022-08-19T09:42:06;5.07;;;1.20;;
51848;SDS011;38952;51.090;-1.832;2022-08-19T09:44:36;6.15;;;1.60;;
51848;SDS011;38952;51.090;-1.832;2022-08-19T09:47:05;11.82;;;1.65;;
51848;SDS011;38952;51.090;-1.832;2022-08-19T09:49:32;15.98;;;1.50;;
51848;SDS011;38952;51.090;-1.832;2022-08-19T09:51:58;11.30;;;1.50;;
51848;SDS011;38952;51.090;-1.832;2022-08-19T09:54:24;13.55;;;1.90;;
51848;SDS011;38952;51.090;-1.832;2022-08-19T09:56:50;5.95;;;1.35;;
51848;SDS011;38952;51.090;-1.832;2022-08-19T09:59:17;7.20;;;1.48;;
51848;SDS011;38952;51.090;-1.832;2022-08-19T10:01:42;5.85;;;1.08;;
51848;SDS011;38952;51.090;-1.832;2022-08-19T10:04:08;7.40;;;1.48;;
51848;SDS011;38952;51.090;-1.832;2022-08-19T10:06:34;3.70;;;1.15;;
51848;SDS011;38952;51.090;-1.832;2022-08-19T10:09:02;4.50;;;1.20;;
51848;SDS011;38952;51.090;-1.832;2022-08-19T10:11:31;6.78;;;1.25;;
51848;SDS011;38952;51.090;-1.832;2022-08-19T10:13:57;3.08;;;1.10;;
51848;SDS011;38952;51.090;-1.832;2022-08-19T10:16:24;5.22;;;1.42;;
51848;SDS011;38952;51.090;-1.832;2022-08-19T10:18:51;5.35;;;1.52;;
51848;SDS011;38952;51.090;-1.832;2022-08-19T10:21:22;6.82;;;1.65;;
51848;SDS011;38952;51.090;-1.832;2022-08-19T10:23:51;6.00;;;1.30;;
51848;SDS011;38952;51.090;-1.832;2022-08-19T10:26:22;7.70;;;1.20;;
51848;SDS011;38952;51.090;-1.832;2022-08-19T10:28:50;5.72;;;1.20;;
51848;SDS011;38952;51.090;-1.832;2022-08-19T10:31:20;11.63;;;1.35;;
51848;SDS011;38952;51.090;-1.832;2022-08-19T10:33:50;4.38;;;1.17;;
51848;SDS011;38952;51.090;-1.832;2022-08-19T10:36:22;5.85;;;1.25;;
51848;SDS011;38952;51.090;-1.832;2022-08-19T10:38:50;6.15;;;1.60;;
51848;SDS011;38952;51.090;-1.832;2022-08-19T10:41:20;3.78;;;1.20;;
51848;SDS011;38952;51.090;-1.832;2022-08-19T10:43:50;4.60;;;1.10;;
51848;SDS011;38952;51.090;-1.832;2022-08-19T10:46:19;4.50;;;1.20;;
51848;SDS011;38952;51.090;-1.832;2022-08-19T10:48:47;6.50;;;1.48;;
51848;SDS011;38952;51.090;-1.832;2022-08-19T10:51:12;8.38;;;1.40;;
51848;SDS011;38952;51.090;-1.832;2022-08-19T10:53:56;5.43;;;1.45;;
51848;SDS011;38952;51.090;-1.832;2022-08-19T10:56:23;4.25;;;1.23;;
51848;SDS011;38952;51.090;-1.832;2022-08-19T10:59:07;4.65;;;1.70;;
51848;SDS011;38952;51.090;-1.832;2022-08-19T11:01:33;5.10;;;1.35;;
51848;SDS011;38952;51.090;-1.832;2022-08-19T11:04:03;10.73;;;1.70;;
51848;SDS011;38952;51.090;-1.832;2022-08-19T11:06:31;5.10;;;1.50;;
51848;SDS011;38952;51.090;-1.832;2022-08-19T11:08:57;8.65;;;1.50;;
51848;SDS011;38952;51.090;-1.832;2022-08-19T11:11:22;7.03;;;1.45;;
51848;SDS011;38952;51.090;-1.832;2022-08-19T11:13:48;7.43;;;1.48;;
51848;SDS011;38952;51.090;-1.832;2022-08-19T11:16:19;4.47;;;1.60;;
51848;SDS011;38952;51.090;-1.832;2022-08-19T11:18:48;8.38;;;1.15;;
51848;SDS011;38952;51.090;-1.832;2022-08-19T11:21:18;9.18;;;1.63;;
51848;SDS011;38952;51.090;-1.832;2022-08-19T11:23:47;4.75;;;1.33;;
51848;SDS011;38952;51.090;-1.832;2022-08-19T11:26:15;5.68;;;1.40;;
51848;SDS011;38952;51.090;-1.832;2022-08-19T11:28:41;3.80;;;1.13;;
51848;SDS011;38952;51.090;-1.832;2022-08-19T11:31:14;2.08;;;0.73;;
51848;SDS011;38952;51.090;-1.832;2022-08-19T11:33:42;4.15;;;1.30;;
51848;SDS011;38952;51.090;-1.832;2022-08-19T11:36:08;6.32;;;1.20;;
51848;SDS011;38952;51.090;-1.832;2022-08-19T11:38:35;3.40;;;1.35;;
51848;SDS011;38952;51.090;-1.832;2022-08-19T11:41:02;7.28;;;1.35;;
51848;SDS011;38952;51.090;-1.832;2022-08-19T11:43:30;6.32;;;1.10;;
51848;SDS011;38952;51.090;-1.832;2022-08-19T11:45:57;6.22;;;1.40;;
51848;SDS011;38952;51.090;-1.832;2022-08-19T11:48:23;3.42;;;1.10;;
51848;SDS011;38952;51.090;-1.832;2022-08-19T11:50:50;4.72;;;1.23;;
51848;SDS011;38952;51.090;-1.832;2022-08-19T11:53:18;5.30;;;1.17;;
51848;SDS011;38952;51.090;-1.832;2022-08-19T11:55:45;7.05;;;1.65;;
51848;SDS011;38952;51.090;-1.832;2022-08-19T11:58:12;6.60;;;1.08;;
51848;SDS011;38952;51.090;-1.832;2022-08-19T12:00:38;2.75;;;0.93;;
51848;SDS011;38952;51.090;-1.832;2022-08-19T12:03:04;3.45;;;1.10;;
51848;SDS011;38952;51.090;-1.832;2022-08-19T12:05:30;5.43;;;1.35;;
51848;SDS011;38952;51.090;-1.832;2022-08-19T12:07:56;6.95;;;1.38;;
51848;SDS011;38952;51.090;-1.832;2022-08-19T12:10:21;5.80;;;1.10;;
51848;SDS011;38952;51.090;-1.832;2022-08-19T12:12:47;5.72;;;1.58;;
51848;SDS011;38952;51.090;-1.832;2022-08-19T12:15:13;6.00;;;1.50;;
51848;SDS011;38952;51.090;-1.832;2022-08-19T12:17:39;4.35;;;1.27;;
51848;SDS011;38952;51.090;-1.832;2022-08-19T12:20:07;7.22;;;1.90;;
51848;SDS011;38952;51.090;-1.832;2022-08-19T12:22:36;7.13;;;1.23;;
51848;SDS011;38952;51.090;-1.832;2022-08-19T12:25:02;5.43;;;1.42;;
51848;SDS011;38952;51.090;-1.832;2022-08-19T12:27:29;5.70;;;1.30;;
51848;SDS011;38952;51.090;-1.832;2022-08-19T12:29:54;3.60;;;1.00;;
51848;SDS011;38952;51.090;-1.832;2022-08-19T12:32:19;3.78;;;1.13;;
51848;SDS011;38952;51.090;-1.832;2022-08-19T12:34:46;6.90;;;1.27;;
51848;SDS011;38952;51.090;-1.832;2022-08-19T12:37:12;2.08;;;0.75;;
51848;SDS011;38952;51.090;-1.832;2022-08-19T12:39:39;5.32;;;1.20;;
51848;SDS011;38952;51.090;-1.832;2022-08-19T12:42:06;10.07;;;1.50;;
51848;SDS011;38952;51.090;-1.832;2022-08-19T12:44:33;4.85;;;1.10;;
51848;SDS011;38952;51.090;-1.832;2022-08-19T12:46:59;5.30;;;1.17;;
51848;SDS011;38952;51.090;-1.832;2022-08-19T12:49:26;4.95;;;1.20;;
51848;SDS011;38952;51.090;-1.832;2022-08-19T12:51:53;8.02;;;1.38;;
51848;SDS011;38952;51.090;-1.832;2022-08-19T12:54:18;6.22;;;1.00;;
51848;SDS011;38952;51.090;-1.832;2022-08-19T12:56:44;2.95;;;0.80;;
51848;SDS011;38952;51.090;-1.832;2022-08-19T12:59:10;4.90;;;1.25;;
51848;SDS011;38952;51.090;-1.832;2022-08-19T13:01:36;6.15;;;1.67;;
51848;SDS011;38952;51.090;-1.832;2022-08-19T13:04:02;6.68;;;1.17;;
51848;SDS011;38952;51.090;-1.832;2022-08-19T13:06:27;3.30;;;0.90;;
51848;SDS011;38952;51.090;-1.832;2022-08-19T13:08:53;4.30;;;0.98;;
51848;SDS011;38952;51.090;-1.832;2022-08-19T13:11:20;3.28;;;1.08;;
51848;SDS011;38952;51.090;-1.832;2022-08-19T13:13:50;5.32;;;1.58;;
51848;SDS011;38952;51.090;-1.832;2022-08-19T13:16:17;2.72;;;1.08;;
51848;SDS011;38952;51.090;-1.832;2022-08-19T13:18:44;4.03;;;1.10;;
51848;SDS011;38952;51.090;-1.832;2022-08-19T13:23:44;6.63;;;1.27;;
51848;SDS011;38952;51.090;-1.832;2022-08-19T13:26:10;7.18;;;1.70;;
51848;SDS011;38952;51.090;-1.832;2022-08-19T13:28:37;6.18;;;1.23;;
51848;SDS011;38952;51.090;-1.832;2022-08-19T13:31:24;5.40;;;1.02;;
51848;SDS011;38952;51.090;-1.832;2022-08-19T13:34:09;7.18;;;1.52;;
51848;SDS011;38952;51.090;-1.832;2022-08-19T13:36:35;4.82;;;1.30;;
51848;SDS011;38952;51.090;-1.832;2022-08-19T13:39:02;7.40;;;1.67;;
51848;SDS011;38952;51.090;-1.832;2022-08-19T13:41:27;8.30;;;1.58;;
51848;SDS011;38952;51.090;-1.832;2022-08-19T13:43:53;6.72;;;1.17;;
51848;SDS011;38952;51.090;-1.832;2022-08-19T13:46:19;8.50;;;1.30;;
51848;SDS011;38952;51.090;-1.832;2022-08-19T13:48:45;6.18;;;1.40;;
51848;SDS011;38952;51.090;-1.832;2022-08-19T13:51:24;8.35;;;1.77;;
51848;SDS011;38952;51.090;-1.832;2022-08-19T13:53:49;10.13;;;1.65;;
51848;SDS011;38952;51.090;-1.832;2022-08-19T13:56:16;4.15;;;1.30;;
51848;SDS011;38952;51.090;-1.832;2022-08-19T13:58:44;5.25;;;1.58;;
51848;SDS011;38952;51.090;-1.832;2022-08-19T14:01:10;9.93;;;1.52;;
51848;SDS011;38952;51.090;-1.832;2022-08-19T14:03:36;10.00;;;1.20;;
51848;SDS011;38952;51.090;-1.832;2022-08-19T14:06:01;3.25;;;1.25;;
51848;SDS011;38952;51.090;-1.832;2022-08-19T14:08:27;5.85;;;1.88;;
51848;SDS011;38952;51.090;-1.832;2022-08-19T14:10:54;5.70;;;1.33;;
51848;SDS011;38952;51.090;-1.832;2022-08-19T14:13:21;10.55;;;1.88;;
51848;SDS011;38952;51.090;-1.832;2022-08-19T14:15:47;3.50;;;1.00;;
51848;SDS011;38952;51.090;-1.832;2022-08-19T14:18:14;6.43;;;1.50;;
51848;SDS011;38952;51.090;-1.832;2022-08-19T14:20:40;7.95;;;1.25;;
51848;SDS011;38952;51.090;-1.832;2022-08-19T14:23:06;8.60;;;1.50;;
51848;SDS011;38952;51.090;-1.832;2022-08-19T14:25:31;4.18;;;1.33;;
51848;SDS011;38952;51.090;-1.832;2022-08-19T14:27:58;6.93;;;1.83;;
51848;SDS011;38952;51.090;-1.832;2022-08-19T14:30:27;4.82;;;1.30;;
51848;SDS011;38952;51.090;-1.832;2022-08-19T14:32:55;8.45;;;1.42;;
51848;SDS011;38952;51.090;-1.832;2022-08-19T14:35:21;9.18;;;1.65;;
51848;SDS011;38952;51.090;-1.832;2022-08-19T14:37:48;4.40;;;1.40;;
51848;SDS011;38952;51.090;-1.832;2022-08-19T14:40:14;6.75;;;1.33;;
51848;SDS011;38952;51.090;-1.832;2022-08-19T14:42:42;4.07;;;1.33;;
51848;SDS011;38952;51.090;-1.832;2022-08-19T14:45:09;9.82;;;1.80;;
51848;SDS011;38952;51.090;-1.832;2022-08-19T14:47:36;4.45;;;1.50;;
51848;SDS011;38952;51.090;-1.832;2022-08-19T14:50:02;7.47;;;1.75;;
51848;SDS011;38952;51.090;-1.832;2022-08-19T14:52:28;8.18;;;2.00;;
51848;SDS011;38952;51.090;-1.832;2022-08-19T14:54:53;4.95;;;1.50;;